Bryn Mawr, Washington
Current Conditions -  °F | °C
As of 12:53 AM on Saturday 25 Oct 2014 (Local Time) from KRNT Reporting Station
Overcast Overcast  
Wind Chill: 52°   Ceiling: 10000
Heat Index: 52°   Visibility: 10mi
Dew Point: 50°   Wind: 10mph
Humidity: 93%   Direction: 310°NW
Pressure: 29.69"   Gusts: NA
Location:  47.4965°N, 122.251°W
Report Text: KRNT 250753Z AUTO 31009KT 10SM OVC100 11/10 A2969 RMK AO2 SLP058 T01110100 401440083
Loading
Personal Weather Stations






























Interactive Weather Map
Tropical Storm Tracking
New forecast layout! Learn more

10-Day Weather Forecast

Advertisements
Track Severe Weather on mobile